Latest Coastal Weather Observations for Coconut Island

IDQ60701

Issued at 12:01 am EST Saturday 25 March 2017 (issued every 10 minutes, with the page automatically refreshed every 10 minutes)

About coastal observations | Map of coastal stations | Coastal observations for QLD | Marine services | Other Formats
Station Details ID: 027054 Name: COCONUT ISLAND Lat: -10.05 Lon: 143.07 Height: 3.5 m
Data from the previous 72 hours. | See also: Recent months at Coconut Island
Date/Time
EST
Temp
°C
Wind Pressure Rain since
9am
mm
Weather Cloud Vis
km
Sea
Height
m
Swell
Dir  Spd
kts
Gust
kts
hPa Trend Height
m
Period
s
Dir
25/12:00am 28.8 W 4 5 - - - - - - - - - -
 
Date/Time
EST
Temp
°C
Wind Pressure Rain since
9am
mm
Weather Cloud Vis
km
Sea
Height
m
Swell
Dir  Spd
kts
Gust
kts
hPa Trend Height
m
Period
s
Dir
24/11:30pm 28.7 W 3 7 1009.8 - 0.0 - - - - - - -
24/11:00pm 28.9 W 4 6 1010.0 - 0.0 - - - - - - -
24/10:30pm 29.0 W 5 7 1010.0 - 0.0 - - - - - - -
24/10:00pm 29.2 WNW 4 7 1009.7 - 0.0 - - - - - - -
24/09:30pm 29.3 WNW 5 8 1009.3 - 0.0 - - - - - - -
24/09:00pm 29.3 WNW 5 9 1009.2 - 0.0 - - - - - - -
24/08:30pm 29.3 W 5 9 1008.7 - 0.0 - - - - - - -
24/08:00pm 29.4 WNW 5 8 1008.3 - 0.0 - - - - - - -
24/07:30pm 29.4 W 6 9 1007.7 - 0.0 - - - - - - -
24/07:00pm 29.3 W 6 9 1007.6 - 0.0 - - - - - - -
24/06:30pm 29.5 W 6 9 1007.3 - 0.0 - - - - - - -
24/06:00pm 30.1 W 5 9 1007.2 - 0.0 - - - - - - -
24/05:30pm 30.9 W 6 10 1007.3 - 0.0 - - - - - - -
24/05:00pm 31.1 WNW 5 10 1007.0 - 0.0 - - - - - - -
24/04:30pm 31.2 WNW 5 10 1006.6 - 0.0 - - - - - - -
24/04:00pm 31.4 WNW 6 9 1006.2 - 0.0 - - - - - - -
24/03:30pm 31.1 WNW 6 10 1006.4 - 0.0 - - - - - - -
24/03:00pm 30.9 WNW 7 11 1007.0 - 0.0 - - - - - - -
24/02:30pm 31.2 WNW 8 12 1007.5 - 0.0 - - - - - - -
24/02:00pm 31.6 WNW 8 12 1007.6 - 0.0 - - - - - - -
24/01:30pm 31.4 WNW 9 12 1008.2 - 0.0 - - - - - - -
24/01:00pm 32.1 NW 7 11 1008.6 - 0.0 - - - - - - -
24/12:30pm 31.6 NW 8 11 1009.0 - 0.0 - - - - - - -
24/12:00pm 31.8 NW 7 11 1009.6 - 0.0 - - - - - - -
24/11:30am 31.8 NW 9 13 1010.0 - 0.0 - - - - - - -
24/11:00am 31.4 NNW 8 11 1010.4 - 0.0 - - - - - - -
24/10:30am 31.8 NW 8 11 1011.0 - 0.0 - - - - - - -
24/10:00am 31.6 NNW 7 11 1011.1 - 0.0 - - - - - - -
24/09:30am 31.0 NNW 8 12 1010.9 - 0.0 - - - - - - -
24/09:00am 31.3 NNW 6 9 1010.9 - 8.4 - - - - - - -
24/08:30am 30.0 NW 6 9 1010.6 - 8.4 - - - - - - -
24/08:00am 28.9 NW 9 14 1010.2 - 8.4 - - - - - - -
24/07:30am 28.5 NW 11 19 1009.8 - 8.4 - - - - - - -
24/07:00am 27.8 NW 6 12 1009.5 - 8.4 - - - - - - -
24/06:30am 26.9 WNW 7 13 1009.3 - 7.6 - - - - - - -
24/06:00am 28.3 NNW 6 8 1008.9 - 6.0 - - - - - - -
24/05:30am 28.5 NW 4 6 1008.5 - 6.0 - - - - - - -
24/05:00am 28.6 NW 5 8 1008.5 - 6.0 - - - - - - -
24/04:30am 28.3 NW 5 7 1008.4 - 6.0 - - - - - - -
24/04:00am 28.4 NW 5 7 1008.2 - 6.0 - - - - - - -
24/03:30am 28.0 WNW 6 10 1007.9 - 6.0 - - - - - - -
24/03:00am 28.0 NW 4 7 1008.4 - 6.0 Recent precip. - - - - - -
24/02:30am 27.4 WNW 2 6 1008.7 - 6.0 - - - - - - -
24/02:00am 27.1 NW 4 8 1008.9 - 5.8 - - - - - - -
24/01:30am 26.3 CALM 0 0 1009.2 - 5.8 - - - - - - -
24/01:00am 28.9 NNW 7 9 1009.6 - 0.0 - - - - - - -
24/12:30am 29.3 NNW 4 6 1010.0 - 0.0 - - - - - - -
24/12:00am 29.6 WNW 5 8 1010.0 - 0.0 - - - - - - -
 
Date/Time
EST
Temp
°C
Wind Pressure Rain since
9am
mm
Weather Cloud Vis
km
Sea
Height
m
Swell
Dir  Spd
kts
Gust
kts
hPa Trend Height
m
Period
s
Dir
23/11:30pm 29.5 WNW 5 8 1010.2 - 0.0 - - - - - - -
23/11:00pm 29.5 WNW 5 8 1010.4 - 0.0 - - - - - - -
23/10:30pm 29.6 NW 6 9 1010.3 - 0.0 - - - - - - -
23/10:00pm 29.6 NW 6 9 1010.1 - 0.0 - - - - - - -
23/09:30pm 29.5 WNW 5 9 1009.6 - 0.0 - - - - - - -
23/09:00pm 29.3 WNW 4 6 1009.2 - 0.0 - - - - - - -
23/08:30pm 29.4 WNW 3 6 1008.8 - 0.0 - - - - - - -
23/08:00pm 29.4 NW 3 5 1008.5 - 0.0 - - - - - - -
23/07:30pm 29.4 NW 3 5 1008.4 - 0.0 - - - - - - -
23/07:00pm 29.4 WNW 2 3 1008.1 - 0.0 - - - - - - -
23/06:30pm 29.8 NW 5 7 1008.1 - 0.0 - - - - - - -
23/06:00pm 30.2 NW 5 7 1007.8 - 0.0 - - - - - - -
23/05:30pm 31.1 NNW 6 8 1007.8 - 0.0 - - - - - - -
23/05:00pm 31.8 NNW 6 8 1007.6 - 0.0 - - - - - - -
23/04:30pm 31.4 NW 4 6 1007.4 - 0.0 - - - - - - -
23/04:00pm 31.7 NW 4 6 1007.6 - 0.0 - - - - - - -
23/03:30pm 31.2 NW 4 7 1007.9 - 0.0 - - - - - - -
23/03:00pm 31.8 NW 4 7 1007.9 - 0.0 - - - - - - -
23/02:30pm 31.5 NW 5 7 1008.0 - 0.0 - - - - - - -
23/02:00pm 31.5 NNW 7 10 1008.3 - 0.0 - - - - - - -
23/01:30pm 32.6 NW 6 9 1008.6 - 0.0 - - - - - - -
23/01:00pm 32.8 NW 5 7 1009.1 - 0.0 - - - - - - -
23/12:30pm 32.3 NW 5 8 1009.6 - 0.0 - - - - - - -
23/12:00pm 31.7 NW 5 8 1010.0 - 0.0 - - - - - - -
23/11:30am 31.3 WNW 5 8 1010.4 - 0.0 - - - - - - -
23/11:00am 32.0 WNW 5 10 1010.9 - 0.0 - - - - - - -
23/10:30am 31.7 W 4 7 1011.2 - 0.0 - - - - - - -
23/10:00am 31.7 W 5 8 1011.4 - 0.0 - - - - - - -
23/09:30am 31.9 W 4 7 1011.5 - 0.0 - - - - - - -
23/09:00am 31.1 W 5 8 1011.1 - 0.0 - - - - - - -
23/08:30am 30.4 W 4 7 1010.9 - 0.0 - - - - - - -
23/08:00am 29.3 W 4 7 1010.8 - 0.0 - - - - - - -
23/07:30am 29.0 W 5 8 1010.4 - 0.0 - - - - - - -
23/07:00am 28.7 W 4 7 1009.7 - 0.0 - - - - - - -
23/06:30am 28.5 W 4 8 1009.4 - 0.0 - - - - - - -
23/06:00am 28.4 WSW 3 5 1009.3 - 0.0 - - - - - - -
23/05:30am 28.3 WSW 3 5 1008.9 - 0.0 - - - - - - -
23/05:00am 28.4 WSW 3 6 1008.6 - 0.0 - - - - - - -
23/04:30am 28.5 W 4 6 1008.4 - 0.0 - - - - - - -
23/04:00am 28.4 WSW 2 5 1008.3 - 0.0 - - - - - - -
23/03:30am 28.4 WSW 3 6 1008.4 - 0.0 - - - - - - -
23/03:00am 28.4 WSW 3 5 1008.4 - 0.0 - - - - - - -
23/02:30am 28.4 WSW 2 5 1008.7 - 0.0 - - - - - - -
23/02:00am 28.6 WSW 3 7 1008.9 - 0.0 - - - - - - -
23/01:30am 28.6 WSW 3 5 1009.2 - 0.0 - - - - - - -
23/01:00am 28.7 WSW 3 6 1009.5 - 0.0 - - - - - - -
23/12:30am 28.7 W 3 5 1009.8 - 0.0 - - - - - - -
23/12:00am 28.7 W 3 5 1010.0 - 0.0 - - - - - - -
 
Date/Time
EST
Temp
°C
Wind Pressure Rain since
9am
mm
Weather Cloud Vis
km
Sea
Height
m
Swell
Dir  Spd
kts
Gust
kts
hPa Trend Height
m
Period
s
Dir
22/11:30pm 28.9 W 3 5 1010.4 - 0.0 - - - - - - -
22/11:00pm 28.9 WSW 2 5 1010.4 - 0.0 - - - - - - -
22/10:30pm 28.9 SW 2 6 1010.5 - 0.0 - - - - - - -
22/10:00pm 29.0 SW 2 4 1010.4 - 0.0 - - - - - - -
22/09:30pm 29.2 WSW 4 7 1009.9 - 0.0 - - - - - - -
22/09:00pm 29.1 WSW 3 7 1009.6 - 0.0 - - - - - - -
22/08:30pm 29.1 WSW 3 5 1008.9 - 0.0 - - - - - - -
22/08:00pm 29.1 WSW 3 6 1008.6 - 0.0 - - - - - - -
22/07:30pm 29.1 WSW 3 6 1008.2 - 0.0 - - - - - - -
22/07:00pm 29.2 W 4 7 1008.0 - 0.0 - - - - - - -
22/06:30pm 29.6 W 5 8 1007.7 - 0.0 - - - - - - -
22/06:00pm 30.7 WSW 4 8 1007.2 - 0.0 - - - - - - -
22/05:30pm 31.4 WSW 5 8 1007.2 - 0.0 - - - - - - -
22/05:00pm 31.5 WSW 3 6 1006.9 - 0.0 - - - - - - -
22/04:30pm 31.9 WSW 4 6 1006.9 - 0.0 - - - - - - -
22/04:00pm 32.1 WSW 2 5 1007.0 - 0.0 - - - - - - -
22/03:30pm 32.0 WNW 3 7 1007.0 - 0.0 - - - - - - -
22/03:00pm 31.9 NW 3 5 1007.2 - 0.0 - - - - - - -
22/02:30pm 32.0 NW 3 6 1007.7 - 0.0 - - - - - - -
22/02:00pm 31.3 NW 3 5 1008.0 - 0.0 - - - - - - -
22/01:30pm 32.5 NW 4 5 1008.7 - 0.0 - - - - - - -
22/01:00pm 31.9 WNW 3 5 1009.2 - 0.0 - - - - - - -
22/12:30pm 31.8 WNW 3 5 1009.6 - 0.0 - - - - - - -
22/12:00pm 31.9 NW 3 5 1010.3 - 0.0 - - - - - - -
22/11:30am 32.0 WNW 4 7 1010.6 - 0.0 - - - - - - -
22/11:00am 31.8 NW 5 8 1010.7 - 0.0 - - - - - - -
22/10:30am 31.7 NNW 4 5 1011.0 - 0.0 - - - - - - -
22/10:00am 31.1 NNW 3 5 1011.3 - 0.0 - - - - - - -
22/09:30am 30.8 NNW 3 4 1011.5 - 0.0 - - - - - - -
22/09:00am 30.8 NW 4 5 1011.4 - 0.0 - - - - - - -
22/08:30am 30.3 NW 4 6 1011.2 - 0.0 - - - - - - -
22/08:00am 29.6 NW 4 6 1010.9 - 0.0 - - - - - - -
22/07:30am 28.2 WNW 3 5 1010.7 - 0.0 - - - - - - -
22/07:00am 27.7 W 3 4 1010.3 - 0.0 - - - - - - -
22/06:30am 27.6 WNW 3 5 1010.0 - 0.0 - - - - - - -
22/06:00am 27.5 WNW 3 5 1009.5 - 0.0 - - - - - - -
22/05:30am 27.5 WNW 3 5 1009.2 - 0.0 - - - - - - -
22/05:00am 27.1 WNW 2 4 1008.8 - 0.0 - - - - - - -
22/04:30am 26.8 W 2 3 1008.7 - 0.0 - - - - - - -
22/04:00am 26.8 W 1 2 1008.6 - 0.0 - - - - - - -
22/03:30am 26.9 W 2 3 1008.8 - 0.0 - - - - - - -
22/03:00am 26.8 W 2 3 1009.0 - 0.0 - - - - - - -
22/02:30am 26.5 W 2 2 1009.0 - 0.0 - - - - - - -
22/02:00am 26.4 W 1 2 1009.2 - 0.0 - - - - - - -
22/01:30am 26.4 CALM 0 1 1009.4 - 0.0 - - - - - - -
22/01:00am 26.5 CALM 0 0 1009.7 - 0.0 - - - - - - -
22/12:30am 26.4 CALM 0 0 1010.3 - 0.0 - - - - - - -

Other Formats:

Comma delimited format used in spreadsheet applications
http://www.bom.gov.au/fwo/IDQ60701/IDQ60701.94182.axf

JavaScript Object Notation format (JSON) in row-major order
http://www.bom.gov.au/fwo/IDQ60701/IDQ60701.94182.json